createdAt,value
2018-08-24T00:00:57.014Z,100673.88
2018-08-24T00:03:36.089Z,100674.44
2018-08-24T00:06:05.695Z,100674.78
2018-08-24T00:08:34.859Z,100674.98
2018-08-24T00:11:03.987Z,100672.25
2018-08-24T00:13:33.050Z,100677.01
2018-08-24T00:16:02.120Z,100673.75
2018-08-24T00:18:31.201Z,100674.25
2018-08-24T00:21:00.334Z,100667.07
2018-08-24T00:23:29.435Z,100665.00
2018-08-24T00:25:58.553Z,100661.09
2018-08-24T00:28:27.898Z,100656.86
2018-08-24T00:30:57.254Z,100655.41
2018-08-24T00:33:26.479Z,100653.47
2018-08-24T00:35:55.583Z,100648.50
2018-08-24T00:38:24.713Z,100652.01
2018-08-24T00:40:57.046Z,100657.34
2018-08-24T00:43:27.191Z,100649.95
2018-08-24T00:45:56.335Z,100640.48
2018-08-24T00:48:25.493Z,100642.67
2018-08-24T00:50:55.173Z,100637.44
2018-08-24T00:53:24.954Z,100638.06
2018-08-24T00:55:54.058Z,100643.88
2018-08-24T00:58:23.127Z,100640.49
2018-08-24T01:00:56.401Z,100643.39
2018-08-24T01:03:26.959Z,100639.02
2018-08-24T01:05:56.084Z,100641.31
2018-08-24T01:08:25.216Z,100636.73
2018-08-24T01:10:54.306Z,100638.64
2018-08-24T01:13:23.423Z,100644.97
2018-08-24T01:15:56.935Z,100639.63
2018-08-24T01:18:31.221Z,100635.61
2018-08-24T01:21:01.359Z,100639.03
2018-08-24T01:23:31.711Z,100641.20
2018-08-24T01:26:02.776Z,100630.52
2018-08-24T01:28:32.326Z,100630.03
2018-08-24T01:31:04.972Z,100635.12
2018-08-24T01:33:34.402Z,100639.75
2018-08-24T01:36:03.563Z,100627.13
2018-08-24T01:38:32.735Z,100631.73
2018-08-24T01:41:01.928Z,100621.66
2018-08-24T01:43:31.037Z,100626.14
2018-08-24T01:46:05.799Z,100630.50
2018-08-24T01:48:34.935Z,100623.58
2018-08-24T01:51:04.029Z,100622.73
2018-08-24T01:53:33.229Z,100626.05
2018-08-24T01:56:02.347Z,100626.17
2018-08-24T01:58:31.436Z,100629.67
2018-08-24T02:01:00.567Z,100626.16
2018-08-24T02:03:29.670Z,100631.52
2018-08-24T02:06:04.150Z,100642.66
2018-08-24T02:08:33.327Z,100631.88
2018-08-24T02:11:20.112Z,100628.83
2018-08-24T02:13:56.986Z,100633.22
2018-08-24T02:16:29.215Z,100638.31
2018-08-24T02:19:03.538Z,100636.01
2018-08-24T02:22:41.581Z,100632.34
2018-08-24T02:25:10.634Z,100635.74
2018-08-24T02:27:39.752Z,100628.72
2018-08-24T02:30:08.910Z,100630.41
2018-08-24T02:32:38.012Z,100629.80
2018-08-24T02:35:08.615Z,100632.11
2018-08-24T02:37:37.792Z,100629.56
2018-08-24T02:40:07.029Z,100633.42
2018-08-24T02:42:36.156Z,100623.37
2018-08-24T02:45:05.494Z,100628.95
2018-08-24T02:47:34.558Z,100624.20
2018-08-24T02:50:03.688Z,100622.51
2018-08-24T02:52:32.791Z,100617.80
2018-08-24T02:55:02.187Z,100619.72
2018-08-24T02:57:31.324Z,100623.25
2018-08-24T03:00:00.550Z,100620.58
2018-08-24T03:02:30.042Z,100623.72
2018-08-24T03:04:59.190Z,100625.05
2018-08-24T03:07:29.307Z,100624.47
2018-08-24T03:09:58.382Z,100627.75
2018-08-24T03:12:28.880Z,100622.39
2018-08-24T03:14:57.971Z,100625.42
2018-08-24T03:17:32.449Z,100628.78
2018-08-24T03:20:01.583Z,100630.00
2018-08-24T03:22:30.693Z,100635.45
2018-08-24T03:24:59.770Z,100631.55
2018-08-24T03:27:28.812Z,100637.24
2018-08-24T03:29:58.032Z,100633.95
2018-08-24T03:32:27.204Z,100629.00
2018-08-24T03:34:56.307Z,100636.00
2018-08-24T03:37:25.397Z,100636.00
2018-08-24T03:39:54.569Z,100642.98
2018-08-24T03:42:23.645Z,100648.55
2018-08-24T03:44:52.758Z,100647.80
2018-08-24T03:47:22.059Z,100646.58
2018-08-24T03:49:51.156Z,100651.36
2018-08-24T03:52:20.246Z,100651.47
2018-08-24T03:54:49.313Z,100652.05
2018-08-24T03:57:18.408Z,100654.48
2018-08-24T03:59:47.515Z,100656.17
2018-08-24T04:02:16.666Z,100657.89
2018-08-24T04:04:45.752Z,100659.11
2018-08-24T04:07:15.604Z,100656.91
2018-08-24T04:09:44.802Z,100659.94
2018-08-24T04:12:13.932Z,100665.66
2018-08-24T04:14:43.036Z,100657.13
2018-08-24T04:17:17.390Z,100659.76
2018-08-24T04:19:46.490Z,100661.36
2018-08-24T04:22:15.573Z,100662.30
2018-08-24T04:24:44.659Z,100663.00
2018-08-24T04:27:13.796Z,100669.08
2018-08-24T04:29:42.881Z,100672.50
2018-08-24T04:32:12.063Z,100670.92
2018-08-24T04:34:41.246Z,100666.23
2018-08-24T04:37:10.624Z,100673.14
2018-08-24T04:39:39.763Z,100667.57
2018-08-24T04:42:08.849Z,100672.20
2018-08-24T04:44:37.926Z,100671.50
2018-08-24T04:47:07.092Z,100678.00
2018-08-24T04:49:36.164Z,100679.10
2018-08-24T04:52:05.351Z,100687.34
2018-08-24T04:54:34.471Z,100675.34
2018-08-24T04:57:03.553Z,100670.98
2018-08-24T04:59:32.750Z,100669.88
2018-08-24T05:02:01.905Z,100669.77
2018-08-24T05:04:30.959Z,100669.41
2018-08-24T05:07:00.097Z,100670.00
2018-08-24T05:09:29.210Z,100674.13
2018-08-24T05:11:58.285Z,100679.34
2018-08-24T05:14:27.399Z,100682.41
2018-08-24T05:16:56.520Z,100687.61
2018-08-24T05:19:26.944Z,100687.61
2018-08-24T05:21:56.128Z,100689.18
2018-08-24T05:24:25.366Z,100690.52
2018-08-24T05:26:54.457Z,100693.53
2018-08-24T05:29:23.665Z,100695.61
2018-08-24T05:31:52.797Z,100693.19
2018-08-24T05:34:22.584Z,100691.73
2018-08-24T05:36:51.787Z,100691.97
2018-08-24T05:39:21.838Z,100690.80
2018-08-24T05:41:50.944Z,100699.78
2018-08-24T05:44:19.998Z,100705.70
2018-08-24T05:46:49.107Z,100704.53
2018-08-24T05:49:18.197Z,100712.30
2018-08-24T05:51:47.303Z,100709.24
2018-08-24T05:54:17.290Z,100707.95
2018-08-24T05:56:47.411Z,100714.38
2018-08-24T05:59:16.536Z,100717.00
2018-08-24T06:01:45.628Z,100709.98
2018-08-24T06:04:14.750Z,100709.98
2018-08-24T06:06:44.018Z,100714.26
2018-08-24T06:09:15.010Z,100723.84
2018-08-24T06:11:44.886Z,100716.06
2018-08-24T06:14:14.557Z,100707.59
2018-08-24T06:16:49.147Z,100719.24
2018-08-24T06:19:18.804Z,100714.73
2018-08-24T06:21:47.943Z,100714.73
2018-08-24T06:24:17.096Z,100718.50
2018-08-24T06:26:46.133Z,100727.02
2018-08-24T06:29:16.142Z,100724.70
2018-08-24T06:31:45.423Z,100727.95
2018-08-24T06:34:20.800Z,100722.27
2018-08-24T06:36:50.229Z,100724.47
2018-08-24T06:39:19.831Z,100730.52
2018-08-24T06:41:48.953Z,100733.45
2018-08-24T06:44:18.102Z,100740.00
2018-08-24T06:46:47.330Z,100743.77
2018-08-24T06:49:16.483Z,100745.81
2018-08-24T06:51:45.654Z,100751.58
2018-08-24T06:54:14.769Z,100745.85
2018-08-24T06:56:43.941Z,100748.31
2018-08-24T06:59:13.036Z,100747.69
2018-08-24T07:01:42.127Z,100752.88
2018-08-24T07:04:11.266Z,100748.55
2018-08-24T07:06:40.368Z,100748.44
2018-08-24T07:09:10.020Z,100752.91
2018-08-24T07:11:39.119Z,100751.34
2018-08-24T07:14:08.220Z,100760.69
2018-08-24T07:16:37.344Z,100758.52
2018-08-24T07:19:06.469Z,100766.30
2018-08-24T07:21:35.590Z,100764.02
2018-08-24T07:24:04.688Z,100770.53
2018-08-24T07:26:33.844Z,100765.08
2018-08-24T07:29:06.276Z,100770.33
2018-08-24T07:31:35.748Z,100761.23
2018-08-24T07:34:04.902Z,100765.47
2018-08-24T07:36:34.060Z,100769.23
2018-08-24T07:39:03.247Z,100779.52
2018-08-24T07:41:32.479Z,100779.87
2018-08-24T07:44:01.494Z,100781.95
2018-08-24T07:46:30.677Z,100786.28
2018-08-24T07:48:59.760Z,100799.66
2018-08-24T07:51:28.899Z,100793.81
2018-08-24T07:53:58.257Z,100795.03
2018-08-24T07:56:29.095Z,100794.83
2018-08-24T07:58:59.271Z,100803.19
2018-08-24T08:01:28.921Z,100791.81
2018-08-24T08:03:59.411Z,100798.48
2018-08-24T08:06:28.763Z,100794.67
2018-08-24T08:08:58.206Z,100792.98
2018-08-24T08:11:30.768Z,100792.68
2018-08-24T08:14:00.458Z,100804.25
2018-08-24T08:16:29.534Z,100810.22
2018-08-24T08:18:58.667Z,100820.31
2018-08-24T08:21:27.836Z,100816.31
2018-08-24T08:23:56.955Z,100819.96
2018-08-24T08:26:26.112Z,100827.14
2018-08-24T08:28:55.311Z,100833.23
2018-08-24T08:31:24.425Z,100839.28
2018-08-24T08:33:53.490Z,100843.59
2018-08-24T08:36:22.599Z,100844.45
2018-08-24T08:38:51.741Z,100850.55
2018-08-24T08:41:20.841Z,100847.25
2018-08-24T08:43:49.961Z,100851.13
2018-08-24T08:46:19.035Z,100856.82
2018-08-24T08:48:48.151Z,100863.50
2018-08-24T08:51:17.241Z,100865.23
2018-08-24T08:53:46.380Z,100867.09
2018-08-24T08:56:16.559Z,100867.24
2018-08-24T08:58:45.711Z,100873.17
2018-08-24T09:01:14.817Z,100879.97
2018-08-24T09:03:44.090Z,100873.28
2018-08-24T09:06:13.258Z,100877.52
2018-08-24T09:08:42.362Z,100882.24
2018-08-24T09:11:11.515Z,100881.66
2018-08-24T09:13:40.657Z,100882.21
2018-08-24T09:16:09.930Z,100886.64
2018-08-24T09:18:44.328Z,100889.79
2018-08-24T09:21:18.679Z,100880.31
2018-08-24T09:23:53.136Z,100886.17
2018-08-24T09:26:27.314Z,100896.55
2018-08-24T09:28:57.702Z,100888.92
2018-08-24T09:31:28.903Z,100897.78
2018-08-24T09:33:58.017Z,100896.22
2018-08-24T09:36:27.136Z,100890.37
2018-08-24T09:38:56.290Z,100889.03
2018-08-24T09:41:25.401Z,100885.03
2018-08-24T09:43:55.581Z,100897.80
2018-08-24T09:46:30.849Z,100901.97
2018-08-24T09:49:05.244Z,100896.16
2018-08-24T09:51:34.333Z,100904.52
2018-08-24T09:54:04.992Z,100888.69
2018-08-24T09:56:34.971Z,100891.19
2018-08-24T09:59:04.147Z,100891.13
2018-08-24T10:01:38.576Z,100895.38
2018-08-24T10:04:13.068Z,100884.42
2018-08-24T10:06:47.360Z,100889.16
2018-08-24T10:09:16.717Z,100879.67
2018-08-24T10:11:45.813Z,100883.31
2018-08-24T10:14:14.939Z,100885.16
2018-08-24T10:16:44.072Z,100882.24
2018-08-24T10:19:14.347Z,100891.59
2018-08-24T10:21:43.453Z,100890.87
2018-08-24T10:24:12.550Z,100892.72
2018-08-24T10:26:41.654Z,100888.81
2018-08-24T10:29:10.742Z,100888.81
2018-08-24T10:31:39.822Z,100883.69
2018-08-24T10:34:08.851Z,100887.95
2018-08-24T10:36:37.928Z,100886.62
2018-08-24T10:39:08.785Z,100891.23
2018-08-24T10:41:37.924Z,100886.73
2018-08-24T10:44:07.240Z,100879.44
2018-08-24T10:46:36.336Z,100887.71
2018-08-24T10:49:05.491Z,100881.14
2018-08-24T10:51:34.620Z,100879.07
2018-08-24T10:54:03.729Z,100876.64
2018-08-24T10:56:32.858Z,100878.34
2018-08-24T10:59:01.926Z,100871.37
2018-08-24T11:01:30.996Z,100880.02
2018-08-24T11:04:00.119Z,100883.17
2018-08-24T11:06:29.175Z,100878.05
2018-08-24T11:08:58.305Z,100879.18
2018-08-24T11:11:27.577Z,100884.15
2018-08-24T11:13:56.686Z,100881.95
2018-08-24T11:16:25.773Z,100885.81
2018-08-24T11:18:54.894Z,100889.16
2018-08-24T11:21:23.973Z,100888.20
2018-08-24T11:23:53.141Z,100883.80
2018-08-24T11:26:22.303Z,100888.94
2018-08-24T11:28:51.401Z,100885.05
2018-08-24T11:31:20.522Z,100885.14
2018-08-24T11:33:49.644Z,100883.50
2018-08-24T11:36:18.816Z,100882.46
2018-08-24T11:38:47.881Z,100887.77
2018-08-24T11:41:17.070Z,100882.93
2018-08-24T11:43:46.391Z,100877.84
2018-08-24T11:46:15.470Z,100869.84
2018-08-24T11:48:44.544Z,100876.70
2018-08-24T11:51:13.680Z,100879.68
2018-08-24T11:53:42.731Z,100885.55
2018-08-24T11:56:12.479Z,100871.72
2018-08-24T11:58:41.633Z,100876.87
2018-08-24T12:01:10.733Z,100871.58
2018-08-24T12:03:39.798Z,100881.31
2018-08-24T12:06:08.921Z,100881.96
2018-08-24T12:08:37.993Z,100875.50
2018-08-24T12:11:07.071Z,100882.06
2018-08-24T12:13:36.156Z,100882.46
2018-08-24T12:16:05.308Z,100877.37
2018-08-24T12:18:34.450Z,100887.98
2018-08-24T12:21:03.565Z,100886.50
2018-08-24T12:23:32.685Z,100879.77
2018-08-24T12:26:01.865Z,100885.88
2018-08-24T12:28:30.997Z,100886.20
2018-08-24T12:31:00.184Z,100884.24
2018-08-24T12:33:29.248Z,100879.27
2018-08-24T12:35:58.329Z,100868.88
2018-08-24T12:38:27.447Z,100878.14
2018-08-24T12:40:56.570Z,100886.27
2018-08-24T12:43:25.732Z,100879.91
2018-08-24T12:45:54.850Z,100882.37
2018-08-24T12:48:24.069Z,100879.43
2018-08-24T12:50:53.192Z,100874.66
2018-08-24T12:53:22.307Z,100872.72
2018-08-24T12:55:51.450Z,100879.91
2018-08-24T12:58:20.616Z,100879.77
2018-08-24T13:00:49.778Z,100872.52
2018-08-24T13:03:18.903Z,100879.66
2018-08-24T13:05:48.105Z,100876.78
2018-08-24T13:08:17.187Z,100868.19
2018-08-24T13:10:46.294Z,100861.86
2018-08-24T13:13:15.372Z,100865.78
2018-08-24T13:15:44.500Z,100864.03
2018-08-24T13:18:13.630Z,100863.88
2018-08-24T13:20:42.883Z,100865.64
2018-08-24T13:23:12.083Z,100856.52
2018-08-24T13:25:41.180Z,100854.72
2018-08-24T13:28:10.371Z,100853.63
2018-08-24T13:30:39.497Z,100857.84
2018-08-24T13:33:08.801Z,100860.04
2018-08-24T13:35:38.317Z,100845.67
2018-08-24T13:38:07.811Z,100846.31
2018-08-24T13:40:36.969Z,100848.52
2018-08-24T13:43:06.600Z,100848.15
2018-08-24T13:45:35.798Z,100846.11
2018-08-24T13:48:05.432Z,100846.21
2018-08-24T13:50:34.605Z,100842.89
2018-08-24T13:53:03.678Z,100850.66
2018-08-24T13:55:33.231Z,100840.96
2018-08-24T13:58:02.630Z,100847.16
2018-08-24T14:00:31.872Z,100844.47
2018-08-24T14:03:00.965Z,100836.77
2018-08-24T14:05:30.822Z,100838.55
2018-08-24T14:07:59.992Z,100839.36
2018-08-24T14:10:29.186Z,100839.80
2018-08-24T14:12:58.307Z,100834.81
2018-08-24T14:15:27.421Z,100844.02
2018-08-24T14:17:56.513Z,100828.38
2018-08-24T14:20:25.702Z,100829.80
2018-08-24T14:22:54.768Z,100825.97
2018-08-24T14:25:23.924Z,100820.91
2018-08-24T14:27:53.045Z,100821.62
2018-08-24T14:30:22.158Z,100830.48
2018-08-24T14:32:51.254Z,100817.05
2018-08-24T14:35:20.310Z,100824.16
2018-08-24T14:37:49.454Z,100819.23
2018-08-24T14:40:18.521Z,100816.78
2018-08-24T14:42:47.631Z,100810.14
2018-08-24T14:45:16.775Z,100818.91
2018-08-24T14:47:45.856Z,100809.63
2018-08-24T14:50:14.971Z,100817.61
2018-08-24T14:52:44.098Z,100814.45
2018-08-24T14:55:13.205Z,100806.89
2018-08-24T14:57:42.395Z,100808.68
2018-08-24T15:00:11.543Z,100796.53
2018-08-24T15:02:40.700Z,100801.12
2018-08-24T15:05:11.263Z,100802.02
2018-08-24T15:07:40.391Z,100800.47
2018-08-24T15:10:10.308Z,100794.99
2018-08-24T15:12:39.783Z,100787.33
2018-08-24T15:15:09.029Z,100800.47
2018-08-24T15:17:38.105Z,100802.91
2018-08-24T15:20:08.046Z,100811.09
2018-08-24T15:22:37.194Z,100805.80
2018-08-24T15:25:06.372Z,100807.58
2018-08-24T15:27:35.545Z,100807.84
2018-08-24T15:30:04.724Z,100814.17
2018-08-24T15:32:33.775Z,100812.50
2018-08-24T15:35:02.926Z,100814.66
2018-08-24T15:37:32.033Z,100814.31
2018-08-24T15:40:01.151Z,100805.88
2018-08-24T15:42:30.277Z,100818.39
2018-08-24T15:44:59.401Z,100819.73
2018-08-24T15:47:28.511Z,100827.51
2018-08-24T15:49:57.644Z,100825.34
2018-08-24T15:52:26.796Z,100829.11
2018-08-24T15:54:56.228Z,100823.14
2018-08-24T15:57:25.319Z,100823.14
2018-08-24T15:59:54.519Z,100816.19
2018-08-24T16:02:23.637Z,100818.04
2018-08-24T16:04:52.799Z,100817.05
2018-08-24T16:07:21.926Z,100811.34
2018-08-24T16:09:50.997Z,100812.80
2018-08-24T16:12:20.204Z,100820.48
2018-08-24T16:14:49.237Z,100815.58
2018-08-24T16:17:18.344Z,100815.70
2018-08-24T16:19:47.460Z,100810.21
2018-08-24T16:22:16.575Z,100814.84
2018-08-24T16:24:45.692Z,100810.61
2018-08-24T16:27:22.470Z,100813.81
2018-08-24T16:29:52.974Z,100807.26
2018-08-24T16:32:22.103Z,100814.89
2018-08-24T16:34:54.498Z,100814.55
2018-08-24T16:37:23.606Z,100809.81
2018-08-24T16:39:52.674Z,100813.09
2018-08-24T16:42:21.761Z,100801.20
2018-08-24T16:44:50.852Z,100803.97
2018-08-24T16:47:20.055Z,100804.49
2018-08-24T16:49:49.159Z,100807.39
2018-08-24T16:52:18.325Z,100813.30
2018-08-24T16:54:47.436Z,100805.02
2018-08-24T16:57:16.511Z,100796.03
2018-08-24T16:59:45.585Z,100798.36
2018-08-24T17:02:14.707Z,100794.86
2018-08-24T17:04:43.801Z,100793.01
2018-08-24T17:07:12.926Z,100789.63
2018-08-24T17:09:42.025Z,100790.23
2018-08-24T17:12:11.283Z,100792.79
2018-08-24T17:14:40.481Z,100786.95
2018-08-24T17:17:09.577Z,100784.89
2018-08-24T17:19:38.689Z,100779.92
2018-08-24T17:22:07.773Z,100782.25
2018-08-24T17:24:36.915Z,100784.80
2018-08-24T17:27:06.194Z,100782.85
2018-08-24T17:29:35.411Z,100783.48
2018-08-24T17:32:04.506Z,100783.70
2018-08-24T17:34:33.637Z,100785.55
2018-08-24T17:37:02.852Z,100779.84
2018-08-24T17:39:31.954Z,100783.25
2018-08-24T17:42:01.334Z,100788.25
2018-08-24T17:44:30.485Z,100786.06
2018-08-24T17:50:10.152Z,100788.25
2018-08-24T17:52:59.424Z,100781.20
2018-08-24T17:55:28.592Z,100775.63
2018-08-24T17:57:57.695Z,100779.64
2018-08-24T18:00:26.813Z,100781.09
2018-08-24T18:02:55.931Z,100782.56
2018-08-24T18:05:25.039Z,100784.41
2018-08-24T18:07:54.150Z,100774.31
2018-08-24T18:10:23.289Z,100780.53
2018-08-24T18:12:52.470Z,100783.19
2018-08-24T18:15:21.609Z,100778.83
2018-08-24T18:17:50.785Z,100783.92
2018-08-24T18:20:19.932Z,100785.63
2018-08-24T18:22:49.058Z,100785.73
2018-08-24T18:25:18.176Z,100782.84
2018-08-24T18:27:47.294Z,100783.41
2018-08-24T18:30:16.470Z,100780.02
2018-08-24T18:32:45.526Z,100776.50
2018-08-24T18:35:14.627Z,100780.38
2018-08-24T18:37:43.725Z,100777.08
2018-08-24T18:40:12.941Z,100785.09
2018-08-24T18:42:42.230Z,100779.29
2018-08-24T18:45:11.276Z,100780.01
2018-08-24T18:47:40.401Z,100782.80
2018-08-24T18:50:09.546Z,100782.20
2018-08-24T18:52:38.754Z,100784.14
2018-08-24T18:55:08.189Z,100787.04
2018-08-24T18:57:37.299Z,100792.00
2018-08-24T19:00:06.499Z,100793.46
2018-08-24T19:02:35.581Z,100796.87
2018-08-24T19:05:04.842Z,100798.09
2018-08-24T19:07:33.937Z,100801.00
2018-08-24T19:10:03.048Z,100786.44
2018-08-24T19:12:32.166Z,100792.63
2018-08-24T19:15:01.365Z,100806.23
2018-08-24T19:17:36.536Z,100804.52
2018-08-24T19:20:10.783Z,100804.16
2018-08-24T19:22:43.268Z,100801.81
2018-08-24T19:25:12.371Z,100805.81
2018-08-24T19:27:46.861Z,100802.20
2018-08-24T19:30:21.211Z,100802.80
2018-08-24T19:32:50.264Z,100804.72
2018-08-24T19:35:19.363Z,100808.99
2018-08-24T19:37:48.454Z,100807.75
2018-08-24T19:40:22.862Z,100805.67
2018-08-24T19:42:52.011Z,100804.09
2018-08-24T19:45:21.098Z,100798.40
2018-08-24T19:47:55.459Z,100798.99
2018-08-24T19:50:24.554Z,100792.20
2018-08-24T19:52:53.755Z,100798.52
2018-08-24T19:55:22.925Z,100795.14
2018-08-24T19:57:57.187Z,100789.77
2018-08-24T20:00:26.257Z,100787.72
2018-08-24T20:02:55.397Z,100790.52
2018-08-24T20:05:24.511Z,100782.86
2018-08-24T20:07:58.800Z,100776.89
2018-08-24T20:10:27.984Z,100780.19
2018-08-24T20:12:57.109Z,100782.11
2018-08-24T20:15:31.458Z,100779.80
2018-08-24T20:18:00.624Z,100775.55
2018-08-24T20:20:29.710Z,100772.85
2018-08-24T20:22:58.859Z,100763.86
2018-08-24T20:25:27.928Z,100766.17
2018-08-24T20:27:57.026Z,100763.27
2018-08-24T20:30:26.226Z,100759.35
2018-08-24T20:32:55.421Z,100760.92
2018-08-24T20:35:24.551Z,100759.78
2018-08-24T20:37:53.723Z,100763.91
2018-08-24T20:40:22.865Z,100765.98
2018-08-24T20:42:52.067Z,100763.05
2018-08-24T20:45:21.291Z,100762.92
2018-08-24T20:47:50.448Z,100759.98
2018-08-24T20:50:19.522Z,100758.87
2018-08-24T20:52:48.609Z,100752.44
2018-08-24T20:55:17.741Z,100748.55
2018-08-24T20:57:46.790Z,100747.45
2018-08-24T21:00:15.917Z,100755.10
2018-08-24T21:02:45.023Z,100748.78
2018-08-24T21:05:14.149Z,100737.48
2018-08-24T21:07:43.225Z,100739.67
2018-08-24T21:10:12.286Z,100737.48
2018-08-24T21:12:41.621Z,100730.92
2018-08-24T21:15:10.660Z,100725.82
2018-08-24T21:17:39.839Z,100728.33
2018-08-24T21:20:08.900Z,100726.98
2018-08-24T21:22:38.005Z,100735.84
2018-08-24T21:25:07.661Z,100726.98
2018-08-24T21:27:36.824Z,100732.20
2018-08-24T21:30:06.361Z,100724.80
2018-08-24T21:32:35.450Z,100728.80
2018-08-24T21:35:04.668Z,100730.97
2018-08-24T21:37:33.817Z,100737.64
2018-08-24T21:40:02.905Z,100740.89
2018-08-24T21:42:32.032Z,100743.79
2018-08-24T21:45:01.195Z,100740.02
2018-08-24T21:47:30.319Z,100736.48
2018-08-24T21:49:59.374Z,100736.83
2018-08-24T21:52:28.495Z,100729.92
2018-08-24T21:54:57.546Z,100737.06
2018-08-24T21:57:26.628Z,100739.09
2018-08-24T21:59:55.736Z,100736.31
2018-08-24T22:02:24.831Z,100735.34
2018-08-24T22:04:53.949Z,100738.11
2018-08-24T22:07:23.009Z,100734.86
2018-08-24T22:09:52.375Z,100732.30
2018-08-24T22:12:21.540Z,100726.69
2018-08-24T22:14:50.736Z,100737.85
2018-08-24T22:17:19.850Z,100732.75
2018-08-24T22:19:48.906Z,100735.41
2018-08-24T22:22:18.017Z,100738.37
2018-08-24T22:24:47.098Z,100738.72
2018-08-24T22:27:16.150Z,100737.11
2018-08-24T22:29:45.535Z,100746.36
2018-08-24T22:32:14.664Z,100738.66
2018-08-24T22:34:43.748Z,100747.23
2018-08-24T22:37:12.845Z,100745.55
2018-08-24T22:39:41.927Z,100741.77
2018-08-24T22:42:11.044Z,100741.16
2018-08-24T22:44:40.132Z,100742.02
2018-08-24T22:47:09.211Z,100735.11
2018-08-24T22:49:41.359Z,100740.69
2018-08-24T22:52:13.950Z,100738.72
2018-08-24T22:54:46.565Z,100740.27
2018-08-24T22:57:19.081Z,100729.03
2018-08-24T22:59:51.176Z,100727.12
2018-08-24T23:02:23.729Z,100730.47
2018-08-24T23:04:56.752Z,100715.35
2018-08-24T23:07:29.304Z,100721.27
2018-08-24T23:10:01.415Z,100721.37
2018-08-24T23:12:33.904Z,100715.52
2018-08-24T23:15:06.024Z,100718.65
2018-08-24T23:17:38.389Z,100710.88
2018-08-24T23:20:10.888Z,100711.10
2018-08-24T23:22:43.939Z,100713.55
2018-08-24T23:25:16.027Z,100704.66
2018-08-24T23:27:48.479Z,100703.20
2018-08-24T23:30:21.055Z,100695.79
2018-08-24T23:32:53.598Z,100700.17
2018-08-24T23:35:25.637Z,100686.94
2018-08-24T23:37:58.161Z,100685.47
2018-08-24T23:40:30.671Z,100680.61
2018-08-24T23:43:03.190Z,100675.50
2018-08-24T23:45:35.734Z,100662.41
2018-08-24T23:48:07.445Z,100658.42
2018-08-24T23:50:39.874Z,100663.61
2018-08-24T23:53:11.922Z,100658.50
2018-08-24T23:55:44.473Z,100648.95
2018-08-24T23:58:16.984Z,100654.11
